Time;durP1;ratioP1;P1;durP2;ratioP2;P2;SDS_P1;SDS_P2;PMS_P1;PMS_P2;Temp;Humidity;BMP_temperature;BMP_pressure;BME280_temperature;BME280_humidity;BME280_pressure;Samples;Min_cycle;Max_cycle;Signal;HPM_P1;HPM_P2
2022/08/23 00:00:45;;;;;;;8.20;3.60;;;;;;;17.77;81.11;100885.27;1629596;87;21001;-78
2022/08/23 00:03:30;;;;;;;4.37;3.20;;;;;;;17.78;81.12;100884.36;1636350;85;25037;-78
2022/08/23 00:06:16;;;;;;;4.53;3.52;;;;;;;17.79;81.14;100885.60;1630236;86;21106;-78
2022/08/23 00:09:03;;;;;;;4.87;2.92;;;;;;;17.80;81.12;100886.45;1631095;86;21030;-78
2022/08/23 00:11:56;;;;;;;5.28;3.62;;;;;;;17.80;81.14;100889.06;1630544;86;21628;-78
2022/08/23 00:14:47;;;;;;;7.47;3.40;;;;;;;17.81;81.17;100890.31;1626255;86;21005;-78
2022/08/23 00:17:32;;;;;;;8.05;3.42;;;;;;;17.82;81.16;100890.70;1626542;87;21010;-78
2022/08/23 00:20:19;;;;;;;6.03;3.70;;;;;;;17.83;81.19;100891.56;1629856;86;21046;-78
2022/08/23 00:23:03;;;;;;;;;;;;;;;17.84;81.18;100895.42;1629803;87;21576;-78
2022/08/23 00:25:49;;;;;;;8.20;3.77;;;;;;;17.86;81.34;100894.05;1622416;86;20142;-78
2022/08/23 00:28:34;;;;;;;6.83;3.47;;;;;;;17.85;81.21;100883.19;1647939;86;20997;-78
2022/08/23 00:31:19;;;;;;;8.45;4.25;;;;;;;17.86;81.21;100883.58;1619406;87;21134;-78
2022/08/23 00:34:04;;;;;;;9.88;4.08;;;;;;;17.86;81.23;100879.20;1586523;88;21085;-77
2022/08/23 00:36:49;;;;;;;7.30;3.15;;;;;;;17.87;81.22;100876.12;1619672;87;21475;-77
2022/08/23 00:39:36;;;;;;;6.42;3.50;;;;;;;17.88;81.24;100875.67;1623234;88;21046;-77
2022/08/23 00:49:12;;;;;;;4.95;3.50;;;;;;;17.90;81.25;100868.61;1613028;87;21056;-77
2022/08/23 00:52:14;;;;;;;5.40;3.85;;;;;;;17.89;81.28;100865.59;1607240;87;21069;-77
2022/08/23 00:55:00;;;;;;;3.70;3.20;;;;;;;17.91;81.27;100869.85;1623408;87;21348;-77
2022/08/23 00:57:46;;;;;;;4.53;3.47;;;;;;;17.92;81.29;100869.39;1615710;87;20990;-77
2022/08/23 01:00:33;;;;;;;8.95;4.12;;;;;;;17.92;81.28;100866.78;1623552;87;21050;-77
2022/08/23 01:03:22;;;;;;;4.20;2.77;;;;;;;17.92;81.28;100866.78;1619573;84;21605;-77
2022/08/23 01:06:31;;;;;;;7.47;3.37;;;;;;;17.92;81.30;100862.40;1616405;87;21093;-77
2022/08/23 01:09:20;;;;;;;14.70;3.62;;;;;;;17.93;81.32;100865.41;1604363;88;21045;-77
2022/08/23 01:12:19;;;;;;;9.05;3.75;;;;;;;17.93;81.32;100864.09;1618975;88;21133;-77
2022/08/23 01:15:13;;;;;;;6.05;3.45;;;;;;;17.95;81.34;100860.11;1621150;87;21104;-77
2022/08/23 01:18:06;;;;;;;6.97;3.33;;;;;;;17.93;81.34;100857.55;1613085;87;21149;-77
2022/08/23 01:20:59;;;;;;;8.58;3.33;;;;;;;17.95;81.34;100863.58;1617690;87;21091;-77
2022/08/23 01:23:50;;;;;;;4.05;3.40;;;;;;;17.96;81.37;100862.66;1626030;86;21569;-77
2022/08/23 01:26:36;;;;;;;7.15;3.75;;;;;;;17.96;81.36;100850.88;1607512;87;21144;-77
2022/08/23 01:29:21;;;;;;;4.10;3.42;;;;;;;18.00;81.37;100860.77;1606680;88;20958;-77
2022/08/23 01:32:08;;;;;;;7.87;3.70;;;;;;;18.00;81.38;100858.15;1604780;87;21069;-77
2022/08/23 01:34:53;;;;;;;5.05;3.40;;;;;;;18.00;81.37;100871.23;1618867;87;21630;-77
2022/08/23 01:37:39;;;;;;;5.67;3.30;;;;;;;18.01;81.39;100867.70;1632604;87;21117;-77
2022/08/23 01:40:25;;;;;;;5.78;3.40;;;;;;;18.02;81.37;100872.02;1627478;87;21014;-78
2022/08/23 01:43:12;;;;;;;5.50;3.15;;;;;;;18.02;81.38;100869.41;1624117;87;21173;-78
2022/08/23 01:45:57;;;;;;;8.70;3.47;;;;;;;18.03;81.39;100868.48;1636692;87;21106;-78
2022/08/23 01:48:44;;;;;;;6.33;3.60;;;;;;;18.04;81.38;100874.11;1637681;87;21065;-78
2022/08/23 01:51:30;;;;;;;4.85;3.33;;;;;;;18.04;81.38;100874.11;1625072;87;21053;-78
2022/08/23 01:54:15;;;;;;;4.53;3.17;;;;;;;18.04;81.42;100859.72;1631881;87;21105;-78
2022/08/23 01:57:00;;;;;;;5.25;3.20;;;;;;;18.04;81.42;100863.19;1609585;87;21101;-78
2022/08/23 01:59:45;;;;;;;4.22;3.15;;;;;;;18.05;81.43;100871.89;1635746;87;21035;-78
2022/08/23 02:02:30;;;;;;;5.53;3.17;;;;;;;18.05;81.44;100858.34;1641844;86;21593;-77
2022/08/23 02:05:16;;;;;;;9.95;2.90;;;;;;;18.07;81.42;100857.82;1643592;86;21120;-77
2022/08/23 02:08:59;;;;;;;6.97;3.15;;;;;;;18.07;81.45;100866.12;1636522;86;21072;-77
2022/08/23 02:10:48;;;;;;;3.98;3.20;;;;;;;18.05;81.45;100864.03;1634151;85;21121;-78
2022/08/23 02:13:33;;;;;;;5.25;2.75;;;;;;;18.04;81.49;100864.50;1649723;86;21545;-78
2022/08/23 02:16:32;;;;;;;5.28;3.37;;;;;;;18.05;81.50;100862.27;1652163;86;21117;-78
2022/08/23 02:19:19;;;;;;;5.67;3.37;;;;;;;18.05;81.48;100868.81;1648894;86;21548;-78
2022/08/23 02:22:06;;;;;;;5.03;3.08;;;;;;;18.05;81.51;100869.27;1649613;86;21068;-78
2022/08/23 02:24:51;;;;;;;4.05;3.30;;;;;;;18.07;81.52;100876.59;1652925;85;21090;-78
2022/08/23 02:27:37;;;;;;;4.92;3.10;;;;;;;18.07;81.52;100860.44;1640683;86;21749;-78
2022/08/23 02:30:22;;;;;;;6.60;3.10;;;;;;;18.09;81.56;100866.91;1649460;86;21117;-78
2022/08/23 02:33:07;;;;;;;8.13;3.47;;;;;;;18.09;81.54;100865.15;1646871;86;22475;-77
2022/08/23 02:35:52;;;;;;;5.83;3.22;;;;;;;18.11;81.56;100870.31;1654220;86;20997;-77
2022/08/23 02:38:37;;;;;;;8.23;2.85;;;;;;;18.11;81.56;100868.55;1646956;86;21051;-78
2022/08/23 02:41:22;;;;;;;5.22;2.92;;;;;;;18.12;81.56;100875.95;1648120;85;20989;-77
2022/08/23 02:44:08;;;;;;;6.70;3.10;;;;;;;18.13;81.57;100882.88;1651225;86;21021;-77
2022/08/23 02:46:53;;;;;;;5.35;2.98;;;;;;;18.14;81.59;100879.34;1658793;86;21066;-77
2022/08/23 02:49:38;;;;;;;7.85;2.95;;;;;;;18.15;81.61;100882.36;1645226;86;21025;-78
2022/08/23 02:52:23;;;;;;;8.80;2.75;;;;;;;18.15;81.60;100881.90;1647935;86;21081;-78
2022/08/23 02:55:10;;;;;;;4.78;3.00;;;;;;;18.16;81.63;100878.36;1652884;86;21143;-78
2022/08/23 02:57:55;;;;;;;7.47;2.80;;;;;;;18.16;81.63;100870.52;1657708;86;21093;-78
2022/08/23 03:00:40;;;;;;;7.45;3.20;;;;;;;18.18;81.64;100880.91;1639108;86;22318;-78
2022/08/23 03:03:25;;;;;;;4.67;3.37;;;;;;;18.19;81.64;100874.77;1626446;86;21106;-77
2022/08/23 03:06:14;;;;;;;4.12;3.00;;;;;;;18.18;81.65;100881.77;1624288;88;21031;-77
2022/08/23 03:09:00;;;;;;;4.22;2.85;;;;;;;18.18;81.65;100885.69;1620069;86;22434;-77
2022/08/23 03:11:48;;;;;;;6.08;3.17;;;;;;;18.19;81.64;100882.16;1625315;86;21680;-78
2022/08/23 03:14:34;;;;;;;6.40;3.47;;;;;;;18.19;81.67;100886.55;1620093;87;21061;-78
2022/08/23 03:17:19;;;;;;;4.45;3.60;;;;;;;18.19;81.68;100897.02;1615053;88;21069;-78
2022/08/23 03:20:06;;;;;;;7.60;3.12;;;;;;;18.19;81.71;100889.16;1607254;86;21596;-78
2022/08/23 03:22:50;;;;;;;;;;;;;;;18.19;81.71;100900.48;1613082;86;21081;-78
2022/08/23 03:25:36;;;;;;;4.33;2.87;;;;;;;18.18;81.87;100901.39;1607515;87;21233;-78
2022/08/23 03:28:21;;;;;;;3.42;3.20;;;;;;;18.19;81.73;100900.94;1624858;88;26985;-78
2022/08/23 03:31:09;;;;;;;7.30;3.75;;;;;;;18.18;81.74;100900.09;1621379;87;21117;-78
2022/08/23 03:33:53;;;;;;;9.50;3.70;;;;;;;18.19;81.74;100902.25;1606695;87;20990;-77
2022/08/23 03:36:38;;;;;;;5.03;3.17;;;;;;;18.19;81.78;100899.62;1621545;86;21006;-77
2022/08/23 03:39:24;;;;;;;9.05;3.30;;;;;;;18.19;81.78;100903.09;1617692;87;21109;-78
2022/08/23 03:42:10;;;;;;;9.15;3.60;;;;;;;18.19;81.77;100901.79;1617371;86;21117;-78
2022/08/23 03:44:56;;;;;;;5.78;3.50;;;;;;;18.20;81.80;100902.15;1618973;86;21065;-78
2022/08/23 03:47:42;;;;;;;7.03;3.80;;;;;;;18.20;81.78;100894.30;1611520;87;21069;-78
2022/08/23 03:50:27;;;;;;;8.03;3.42;;;;;;;18.19;81.81;100886.08;1613705;87;22228;-78
2022/08/23 03:53:13;;;;;;;8.13;3.52;;;;;;;18.20;81.83;100881.67;1614153;86;21584;-78
2022/08/23 03:55:58;;;;;;;6.03;3.52;;;;;;;18.19;81.86;100883.92;1615560;87;21100;-78
2022/08/23 03:58:44;;;;;;;4.45;3.80;;;;;;;18.18;81.87;100888.31;1624652;88;21145;-78
2022/08/23 04:01:29;;;;;;;7.92;3.87;;;;;;;18.20;81.88;100892.14;1620734;87;21058;-78
2022/08/23 04:04:14;;;;;;;8.50;3.67;;;;;;;18.20;81.91;100901.30;1635038;86;21056;-78
2022/08/23 04:06:59;;;;;;;5.50;4.53;;;;;;;18.20;81.91;100901.30;1627025;86;21093;-78
2022/08/23 04:09:44;;;;;;;5.85;4.15;;;;;;;18.21;81.95;100895.14;1636345;87;21031;-78
2022/08/23 04:12:29;;;;;;;6.67;4.17;;;;;;;18.22;81.96;100894.69;1632249;86;21001;-78
2022/08/23 04:15:14;;;;;;;5.67;3.62;;;;;;;18.23;81.96;100892.00;1632122;87;21069;-78
2022/08/23 04:18:00;;;;;;;8.25;3.85;;;;;;;18.23;81.95;100891.16;1623566;87;21069;-78
2022/08/23 04:20:46;;;;;;;5.00;3.83;;;;;;;18.22;82.02;100899.92;1619635;87;21089;-78
2022/08/23 04:23:31;;;;;;;8.57;4.07;;;;;;;18.23;82.04;100907.71;1632985;87;21602;-78
2022/08/23 04:26:16;;;;;;;4.72;3.75;;;;;;;18.24;82.08;100911.18;1630780;86;22283;-78
2022/08/23 04:29:01;;;;;;;5.87;4.20;;;;;;;18.24;82.11;100909.88;1620469;87;21129;-78
2022/08/23 04:31:46;;;;;;;6.17;4.35;;;;;;;18.25;82.12;100908.50;1630090;86;22408;-78
2022/08/23 04:34:33;;;;;;;6.58;4.40;;;;;;;18.26;82.16;100906.73;1636189;86;21449;-77
2022/08/23 04:37:17;;;;;;;5.65;4.08;;;;;;;18.25;82.13;100904.57;1626055;87;22491;-77
2022/08/23 04:43:07;;;;;;;4.70;4.22;;;;;;;18.26;82.19;100903.66;1629628;87;21113;-78
2022/08/23 04:45:52;;;;;;;5.92;4.05;;;;;;;18.28;82.18;100903.59;1634181;87;21410;-78
2022/08/23 04:48:37;;;;;;;8.20;4.50;;;;;;;18.27;82.23;100906.66;1625659;87;21050;-78
2022/08/23 04:51:22;;;;;;;6.05;4.53;;;;;;;18.28;82.25;100903.12;1630674;87;21113;-78
2022/08/23 04:54:07;;;;;;;9.60;4.65;;;;;;;18.30;82.28;100902.61;1626793;86;21078;-78
2022/08/23 04:56:52;;;;;;;4.78;4.37;;;;;;;18.30;82.29;100897.38;1622942;87;21585;-78
2022/08/23 04:59:38;;;;;;;6.55;4.30;;;;;;;18.33;82.32;100893.31;1621938;87;21047;-78
2022/08/23 05:02:23;;;;;;;7.25;3.85;;;;;;;18.34;82.33;100894.16;1633495;87;21027;-78
2022/08/23 05:05:09;;;;;;;6.17;4.33;;;;;;;18.36;82.35;100897.56;1594005;86;21506;-78
2022/08/23 05:07:54;;;;;;;;;;;;;;;18.38;82.36;100893.96;1599818;87;21111;-78
2022/08/23 05:10:40;;;;;;;4.97;4.47;;;;;;;18.38;82.55;100893.11;1593940;87;20192;-78
2022/08/23 05:13:25;;;;;;;6.17;4.85;;;;;;;18.39;82.45;100890.42;1585866;87;22300;-78
2022/08/23 05:16:11;;;;;;;4.85;4.45;;;;;;;18.41;82.43;100884.66;1594949;87;21046;-78
2022/08/23 05:18:56;;;;;;;7.03;4.53;;;;;;;18.43;82.47;100889.38;1590241;87;21080;-78
2022/08/23 05:21:41;;;;;;;7.03;4.60;;;;;;;18.45;82.46;100896.70;1594339;88;21659;-78
2022/08/23 05:24:26;;;;;;;5.67;4.62;;;;;;;18.46;82.48;100892.31;1584420;86;21084;-78
2022/08/23 05:27:11;;;;;;;4.75;4.30;;;;;;;18.49;82.48;100894.34;1593210;88;21108;-78
2022/08/23 05:29:57;;;;;;;5.95;4.58;;;;;;;18.51;82.52;100889.03;1596888;87;21088;-78
2022/08/23 05:32:42;;;;;;;5.72;4.08;;;;;;;18.52;82.53;100892.89;1593569;88;21086;-78
2022/08/23 05:35:27;;;;;;;6.00;4.50;;;;;;;18.54;82.54;100894.14;1595102;87;21602;-78
2022/08/23 05:38:12;;;;;;;4.60;4.20;;;;;;;18.57;82.56;100894.00;1599814;87;21233;-78
2022/08/23 05:41:00;;;;;;;4.67;4.37;;;;;;;18.59;82.57;100898.72;1591680;88;21128;-78
2022/08/23 05:43:46;;;;;;;5.90;5.08;;;;;;;18.62;82.60;100901.69;1598609;87;21084;-78
2022/08/23 05:46:33;;;;;;;7.30;5.60;;;;;;;18.64;82.62;100909.87;1594254;87;21068;-77
2022/08/23 05:49:18;;;;;;;5.10;4.60;;;;;;;18.67;82.64;100911.05;1598197;88;21173;-77
2022/08/23 05:52:06;;;;;;;6.00;4.70;;;;;;;18.69;82.66;100913.59;1596167;87;21092;-77
2022/08/23 05:54:52;;;;;;;4.95;4.55;;;;;;;18.73;82.66;100922.98;1593465;87;21121;-77
2022/08/23 05:57:37;;;;;;;4.28;3.98;;;;;;;18.74;82.70;100916.37;1597893;87;21073;-77
2022/08/23 06:00:22;;;;;;;5.72;3.80;;;;;;;18.78;82.73;100921.02;1584766;87;21529;-77
2022/08/23 06:03:07;;;;;;;5.95;4.45;;;;;;;18.82;82.73;100919.49;1606837;86;21401;-78
2022/08/23 06:06:00;;;;;;;4.90;4.55;;;;;;;18.85;82.76;100919.81;1638852;86;21026;-78
2022/08/23 06:08:47;;;;;;;6.37;4.47;;;;;;;18.88;82.81;100920.14;1630471;85;21521;-78
2022/08/23 06:11:33;;;;;;;4.67;4.37;;;;;;;18.92;82.80;100902.05;1625742;86;21529;-78
2022/08/23 06:14:18;;;;;;;5.12;3.98;;;;;;;18.95;82.80;100893.58;1626179;85;21602;-78
2022/08/23 06:17:04;;;;;;;3.65;3.35;;;;;;;18.99;82.78;100901.69;1635137;85;21137;-78
2022/08/23 06:19:49;;;;;;;5.08;4.15;;;;;;;19.02;82.79;100903.32;1633055;85;21448;-78
2022/08/23 06:22:35;;;;;;;3.87;3.47;;;;;;;19.04;82.84;100898.86;1632909;85;21117;-78
2022/08/23 06:25:19;;;;;;;4.40;3.83;;;;;;;19.08;82.99;100901.73;1635642;85;21093;-79
2022/08/23 06:28:05;;;;;;;4.10;3.55;;;;;;;19.12;82.85;100901.98;1629803;85;21095;-79
2022/08/23 06:30:58;;;;;;;4.70;4.03;;;;;;;19.16;82.91;100900.45;1633781;86;21087;-79
2022/08/23 06:33:43;;;;;;;4.58;3.83;;;;;;;19.22;82.88;100894.53;1608710;86;21069;-78
2022/08/23 06:36:28;;;;;;;4.95;4.50;;;;;;;19.27;82.95;100892.05;1629969;85;21136;-78
2022/08/23 06:39:16;;;;;;;5.28;4.30;;;;;;;19.35;82.94;100896.47;1637874;85;21125;-78
2022/08/23 06:42:06;;;;;;;4.30;3.90;;;;;;;19.42;82.93;100893.09;1590559;87;21058;-78
2022/08/23 06:44:51;;;;;;;4.25;3.87;;;;;;;19.47;82.92;100898.50;1595385;87;20970;-78
2022/08/23 06:47:36;;;;;;;6.10;4.08;;;;;;;19.53;82.93;100900.48;1598300;87;20974;-78
2022/08/23 06:50:22;;;;;;;5.65;4.70;;;;;;;19.57;82.95;100901.56;1603114;87;20934;-78
2022/08/23 06:53:07;;;;;;;5.22;3.67;;;;;;;19.63;82.89;100892.55;1597055;87;20949;-78
2022/08/23 06:55:52;;;;;;;5.28;4.60;;;;;;;19.68;82.97;100901.05;1598734;88;20968;-78
2022/08/23 06:58:37;;;;;;;5.25;4.00;;;;;;;19.73;83.01;100906.45;1597801;87;21087;-79
2022/08/23 07:01:33;;;;;;;5.60;4.28;;;;;;;19.77;82.98;100915.84;1473343;87;5001950;-78
2022/08/23 07:04:23;;;;;;;6.10;5.10;;;;;;;19.79;83.00;100913.99;1616684;86;21085;-78
2022/08/23 07:07:09;;;;;;;5.00;4.60;;;;;;;19.83;83.00;100926.04;1612494;87;21137;-78
2022/08/23 07:09:53;;;;;;;5.78;4.28;;;;;;;19.85;82.94;100925.96;1591919;87;21121;-78
2022/08/23 07:12:41;;;;;;;4.78;4.25;;;;;;;19.84;82.95;100931.67;1614222;86;21104;-79
2022/08/23 07:15:25;;;;;;;5.03;4.40;;;;;;;19.86;82.98;100931.59;1616230;87;21483;-79
2022/08/23 07:18:12;;;;;;;6.30;4.85;;;;;;;19.86;82.96;100931.59;1613024;86;21088;-80
2022/08/23 07:20:59;;;;;;;4.83;4.42;;;;;;;19.88;82.94;100926.27;1603012;87;21130;-79
2022/08/23 07:23:45;;;;;;;6.58;5.95;;;;;;;19.90;82.93;100927.05;1603704;87;21127;-78
2022/08/23 07:26:31;;;;;;;8.58;5.45;;;;;;;19.98;83.04;100931.45;1610551;86;21128;-79
2022/08/23 07:29:17;;;;;;;5.40;4.70;;;;;;;20.04;83.04;100929.38;1608315;87;21138;-80
2022/08/23 07:32:02;;;;;;;5.75;4.65;;;;;;;20.11;82.96;100931.23;1618124;87;21089;-80
2022/08/23 07:34:47;;;;;;;5.30;4.80;;;;;;;20.18;83.00;100930.00;1593983;87;21122;-79
2022/08/23 07:37:32;;;;;;;6.45;4.60;;;;;;;20.28;82.98;100936.45;1601521;87;21068;-79
2022/08/23 07:40:18;;;;;;;5.55;5.05;;;;;;;20.32;82.95;100940.61;1608577;87;21104;-80
2022/08/23 07:43:04;;;;;;;9.43;4.87;;;;;;;20.31;82.87;100933.66;1606656;85;21107;-79
2022/08/23 07:45:49;;;;;;;7.73;5.20;;;;;;;20.33;82.92;100937.52;1593063;88;21153;-79
2022/08/23 07:48:35;;;;;;;6.90;5.40;;;;;;;20.36;82.95;100932.97;1603186;87;21581;-80
2022/08/23 07:51:20;;;;;;;;;;;;;;;20.40;82.97;100940.25;1583997;86;21008;-79
2022/08/23 07:54:08;;;;;;;6.33;4.60;;;;;;;20.42;82.96;100937.94;1591012;87;20147;-79
2022/08/23 07:56:54;;;;;;;6.67;5.35;;;;;;;20.44;82.87;100944.42;1640116;85;21085;-79
2022/08/23 07:59:39;;;;;;;8.03;5.58;;;;;;;20.44;82.90;100941.33;1642119;85;21113;-79
2022/08/23 08:02:24;;;;;;;6.65;5.42;;;;;;;20.48;82.93;100940.71;1639405;85;21061;-79
2022/08/23 08:05:09;;;;;;;6.60;5.83;;;;;;;20.49;82.87;100946.35;1634833;85;21065;-78
2022/08/23 08:07:55;;;;;;;7.47;5.65;;;;;;;20.49;82.85;100952.92;1639198;85;21088;-78
2022/08/23 08:10:42;;;;;;;7.78;5.55;;;;;;;20.47;82.85;100956.94;1640029;85;21100;-78
2022/08/23 08:13:28;;;;;;;12.53;5.55;;;;;;;20.48;82.91;100963.04;1643756;85;21125;-78
2022/08/23 08:16:28;;;;;;;12.50;5.15;;;;;;;20.48;82.86;100960.41;1630700;85;21042;-78
2022/08/23 08:19:15;;;;;;;6.33;5.72;;;;;;;20.48;82.88;100963.89;1643324;85;21074;-78
2022/08/23 08:22:00;;;;;;;7.78;5.75;;;;;;;20.51;82.87;100976.02;1613735;86;20941;-78
2022/08/23 08:24:45;;;;;;;5.72;5.20;;;;;;;20.51;82.84;100983.05;1598129;87;20995;-82
2022/08/23 08:27:31;;;;;;;7.08;5.03;;;;;;;20.50;82.84;100980.89;1609798;87;20981;-78
2022/08/23 08:30:16;;;;;;;6.25;5.65;;;;;;;20.49;82.82;100981.81;1592421;86;20986;-78
2022/08/23 08:33:00;;;;;;;10.28;5.90;;;;;;;20.47;82.82;100985.84;1612110;87;20965;-77
2022/08/23 08:35:48;;;;;;;8.48;5.70;;;;;;;20.50;82.84;100990.09;1577896;88;20998;-78
2022/08/23 08:38:39;;;;;;;10.28;6.47;;;;;;;20.51;82.85;100991.78;1610359;87;21429;-78
2022/08/23 08:41:32;;;;;;;6.70;6.08;;;;;;;20.53;82.82;100987.77;1593574;87;20970;-80
2022/08/23 08:44:25;;;;;;;11.65;6.20;;;;;;;20.54;82.78;101002.13;1594606;88;21059;-80
2022/08/23 08:47:24;;;;;;;12.50;6.60;;;;;;;20.54;82.78;101005.23;1592681;87;21362;-79
2022/08/23 08:50:36;;;;;;;7.53;6.42;;;;;;;20.53;82.79;101002.22;1639357;84;20934;-80
2022/08/23 08:53:40;;;;;;;8.10;6.25;;;;;;;20.54;82.79;101007.39;1640556;85;21029;-80
2022/08/23 08:56:33;;;;;;;7.22;6.53;;;;;;;20.55;82.75;101003.84;1640526;85;21554;-79
2022/08/23 08:59:31;;;;;;;14.85;6.30;;;;;;;20.56;82.76;101002.06;1639674;83;21097;-79
2022/08/23 09:02:20;;;;;;;8.18;6.05;;;;;;;20.58;82.80;101004.14;1634466;85;21117;-79
2022/08/23 09:05:26;;;;;;;10.50;7.30;;;;;;;20.60;82.79;101003.60;1646075;83;21396;-79
2022/08/23 09:08:48;;;;;;;;;;;;;;;20.63;82.75;101012.64;1648353;85;21064;-79
2022/08/23 09:12:13;;;;;;;10.18;6.78;;;;;;;20.65;82.79;101013.41;1642930;85;20212;-79
2022/08/23 09:15:16;;;;;;;8.13;6.23;;;;;;;20.65;82.75;101012.95;1648231;85;21330;-79
2022/08/23 09:18:11;;;;;;;9.73;6.67;;;;;;;20.69;82.80;101013.17;1648637;85;21113;-79
2022/08/23 09:20:58;;;;;;;7.65;6.45;;;;;;;20.71;82.76;101019.20;1644923;85;21042;-79
2022/08/23 09:23:46;;;;;;;9.48;6.25;;;;;;;20.73;82.74;101017.81;1646830;85;21080;-78
2022/08/23 09:26:32;;;;;;;7.53;6.65;;;;;;;20.74;82.75;101017.73;1633674;85;21001;-78
2022/08/23 09:29:25;;;;;;;7.53;6.55;;;;;;;20.78;82.75;101014.02;1643042;85;21790;-78
2022/08/23 09:32:33;;;;;;;8.00;6.53;;;;;;;20.80;82.78;101012.12;1641225;85;21089;-76
2022/08/23 09:35:23;;;;;;;10.90;6.28;;;;;;;20.83;82.72;101009.34;1601287;87;21121;-77
2022/08/23 09:38:19;;;;;;;15.68;6.95;;;;;;;20.87;82.71;101013.97;1585869;88;21085;-78
2022/08/23 09:41:19;;;;;;;6.90;6.40;;;;;;;20.92;82.72;101005.38;1579148;88;21104;-78
2022/08/23 09:44:12;;;;;;;9.33;7.08;;;;;;;20.97;82.74;101011.25;1643253;84;21240;-79
2022/08/23 09:47:15;;;;;;;12.15;7.30;;;;;;;21.01;82.69;101010.62;1618645;85;21101;-78
2022/08/23 09:50:11;;;;;;;17.02;8.53;;;;;;;21.02;82.66;101015.80;1603965;88;21029;-78
2022/08/23 09:53:09;;;;;;;13.62;6.50;;;;;;;21.03;82.60;101019.28;1604683;87;21083;-78
2022/08/23 09:55:56;;;;;;;12.18;6.70;;;;;;;21.02;82.62;101023.69;1567865;89;21089;-78
2022/08/23 09:58:45;;;;;;;12.65;7.33;;;;;;;21.05;82.65;101025.30;1538871;91;21615;-77
2022/08/23 10:01:34;;;;;;;11.75;6.72;;;;;;;21.06;82.60;101018.65;1568486;89;21088;-78
2022/08/23 10:04:43;;;;;;;10.70;7.17;;;;;;;21.07;82.61;101016.87;1602075;88;21172;-78
2022/08/23 10:07:40;;;;;;;8.10;7.12;;;;;;;21.07;82.60;101011.14;1580640;87;21149;-78
2022/08/23 10:10:51;;;;;;;11.65;6.33;;;;;;;21.08;82.60;101010.22;1567417;89;21124;-78
2022/08/23 10:13:41;;;;;;;9.68;7.40;;;;;;;21.08;82.57;101015.47;1609191;86;21439;-78
2022/08/23 10:16:33;;;;;;;13.38;7.15;;;;;;;21.08;82.58;101018.10;1649943;85;20954;-78
2022/08/23 10:19:38;;;;;;;10.08;7.37;;;;;;;21.08;82.60;101018.56;1643474;85;21452;-78
2022/08/23 10:22:34;;;;;;;11.60;8.53;;;;;;;21.11;82.62;101028.92;1647690;85;21450;-78
2022/08/23 10:25:34;;;;;;;12.95;8.40;;;;;;;21.12;82.59;101031.47;1644566;85;20938;-78
2022/08/23 10:31:51;;;;;;;12.55;7.90;;;;;;;21.18;82.60;101028.98;1647527;85;21658;-78
2022/08/23 10:35:02;;;;;;;9.58;8.30;;;;;;;21.21;82.56;101031.48;1643682;85;21120;-78
2022/08/23 10:38:18;;;;;;;9.95;7.42;;;;;;;21.23;82.55;101033.56;1654276;85;21009;-78
2022/08/23 10:41:18;;;;;;;8.33;7.12;;;;;;;21.25;82.53;101030.85;1649734;85;21088;-78
2022/08/23 10:44:26;;;;;;;8.88;6.95;;;;;;;21.27;82.53;101031.62;1643343;85;21124;-78
2022/08/23 10:47:48;;;;;;;13.55;8.68;;;;;;;21.29;82.54;101031.08;1647105;85;21575;-79
2022/08/23 10:50:44;;;;;;;14.28;8.10;;;;;;;21.30;82.54;101037.56;1646875;85;21507;-78
2022/08/23 10:53:45;;;;;;;13.80;8.63;;;;;;;21.31;82.57;101031.38;1644897;85;21128;-78
2022/08/23 10:56:30;;;;;;;10.63;7.85;;;;;;;21.34;82.53;101036.44;1641376;85;21666;-78
2022/08/23 10:59:23;;;;;;;10.63;8.03;;;;;;;21.35;82.53;101032.02;1641839;85;21104;-78
2022/08/23 11:02:31;;;;;;;11.53;8.45;;;;;;;21.37;82.54;101031.48;1643219;85;21004;-78
2022/08/23 11:05:27;;;;;;;13.15;8.30;;;;;;;21.38;82.53;101031.39;1645595;84;21069;-79
2022/08/23 11:08:33;;;;;;;10.85;8.20;;;;;;;21.40;82.49;101032.16;1636909;85;21156;-79
2022/08/23 11:12:07;;;;;;;10.25;8.88;;;;;;;21.41;82.50;101032.55;1630140;83;21045;-79
2022/08/23 11:15:13;;;;;;;12.00;9.18;;;;;;;21.43;82.54;101025.88;1634492;85;21529;-78
2022/08/23 11:18:06;;;;;;;12.20;8.78;;;;;;;21.44;82.51;101023.63;1640915;85;21116;-81
2022/08/23 11:21:00;;;;;;;13.78;9.05;;;;;;;21.47;82.48;101024.78;1639963;85;21092;-80
2022/08/23 11:24:01;;;;;;;13.10;9.98;;;;;;;21.48;82.49;101019.91;1641686;85;21069;-81
2022/08/23 11:26:54;;;;;;;14.53;10.08;;;;;;;21.52;82.51;101027.16;1641387;85;21132;-81
2022/08/23 11:29:40;;;;;;;14.07;9.98;;;;;;;21.55;82.48;101019.95;1640305;85;433855;-81
2022/08/23 11:32:36;;;;;;;;;;;;;;;21.60;82.52;101017.91;1677236;83;21023;-81
2022/08/23 11:35:44;;;;;;;14.33;9.55;;;;;;;21.67;82.52;101017.11;1680285;83;20258;-80
2022/08/23 11:38:49;;;;;;;13.50;10.82;;;;;;;21.71;82.49;101010.73;1683916;83;21131;-81
2022/08/23 11:41:57;;;;;;;12.58;11.15;;;;;;;21.74;82.42;101019.31;1685057;83;21138;-80
2022/08/23 11:44:46;;;;;;;14.00;11.12;;;;;;;21.76;82.38;101017.91;1683359;83;21348;-80
2022/08/23 11:47:41;;;;;;;18.65;12.10;;;;;;;21.78;82.42;101018.67;1695480;83;21122;-80
2022/08/23 11:50:46;;;;;;;14.50;10.75;;;;;;;21.83;82.42;101019.27;1685960;83;21064;-80
2022/08/23 11:53:55;;;;;;;14.53;10.70;;;;;;;21.86;82.44;101011.16;1688981;83;21137;-81
2022/08/23 11:57:19;;;;;;;16.27;11.25;;;;;;;21.91;82.38;101022.28;1698405;83;21029;-81
2022/08/23 12:00:19;;;;;;;15.45;12.00;;;;;;;21.91;82.37;101020.97;1644618;85;21061;-80
2022/08/23 12:03:33;;;;;;;13.93;11.57;;;;;;;21.93;82.32;101019.56;1656341;84;20987;-80
2022/08/23 12:06:40;;;;;;;17.62;11.93;;;;;;;21.95;82.38;101016.37;1646214;84;21138;-80
2022/08/23 12:09:30;;;;;;;19.37;12.00;;;;;;;22.02;82.45;101021.71;1648052;83;21482;-80
2022/08/23 12:12:29;;;;;;;16.97;11.30;;;;;;;22.08;82.45;101020.05;1657900;85;21146;-80
2022/08/23 12:15:16;;;;;;;20.45;12.82;;;;;;;22.17;82.45;101018.67;1632940;85;20938;-80
2022/08/23 12:18:09;;;;;;;15.90;12.20;;;;;;;22.21;82.37;101025.45;1654086;85;21505;-80
2022/08/23 12:21:01;;;;;;;20.10;11.90;;;;;;;22.27;82.40;101019.84;1616926;86;21684;-80
2022/08/23 12:23:54;;;;;;;19.42;12.05;;;;;;;22.32;82.34;101019.09;1642659;85;20934;-80
2022/08/23 12:27:02;;;;;;;19.75;11.50;;;;;;;22.36;82.35;101017.95;1640633;85;21212;-80
2022/08/23 12:30:10;;;;;;;16.35;11.20;;;;;;;22.40;82.34;101009.77;1610184;86;21083;-80
2022/08/23 12:33:40;;;;;;;17.67;12.10;;;;;;;22.44;82.23;101009.13;1619828;86;21122;-79
2022/08/23 12:36:40;;;;;;;16.02;11.33;;;;;;;22.47;82.27;101008.95;1653724;85;21501;-79
2022/08/23 12:39:38;;;;;;;15.90;12.13;;;;;;;22.54;82.31;100999.73;1646667;85;21182;-80
2022/08/23 12:42:31;;;;;;;19.10;11.30;;;;;;;22.63;82.28;101005.78;1657418;85;21089;-80
2022/08/23 12:45:22;;;;;;;12.80;11.35;;;;;;;22.72;82.23;101006.55;1654405;85;21073;-80
2022/08/23 12:48:11;;;;;;;19.25;11.93;;;;;;;22.74;82.16;101004.67;1650284;85;21076;-80
2022/08/23 12:51:01;;;;;;;19.15;11.88;;;;;;;22.80;82.18;101003.95;1650025;85;21541;-80
2022/08/23 12:53:46;;;;;;;14.85;10.13;;;;;;;22.85;82.18;101001.88;1649153;85;21042;-80
2022/08/23 12:56:33;;;;;;;19.70;11.55;;;;;;;22.92;82.14;100998.75;1654742;85;21758;-80
2022/08/23 12:59:45;;;;;;;12.15;10.40;;;;;;;22.99;82.07;100995.27;1656408;85;20966;-80
2022/08/23 13:02:32;;;;;;;20.50;10.90;;;;;;;23.03;82.05;101000.73;1653482;85;21073;-80
2022/08/23 13:05:28;;;;;;;14.55;10.88;;;;;;;23.07;82.02;100999.59;1652625;83;21120;-80
2022/08/23 13:08:18;;;;;;;15.38;10.32;;;;;;;23.09;82.00;100995.92;1707290;82;21103;-80
2022/08/23 13:11:06;;;;;;;18.57;10.43;;;;;;;23.11;81.91;101000.63;1709429;82;21079;-80
2022/08/23 13:13:51;;;;;;;14.98;10.23;;;;;;;23.13;81.93;101004.97;1707540;82;22523;-80
2022/08/23 13:16:43;;;;;;;15.10;10.68;;;;;;;23.11;81.77;101008.55;1701059;82;21100;-80
2022/08/23 13:19:31;;;;;;;17.17;10.60;;;;;;;23.12;81.82;101005.44;1698447;82;20976;-81
2022/08/23 13:22:24;;;;;;;13.35;10.55;;;;;;;23.13;81.78;101004.97;1721753;82;21081;-80
2022/08/23 13:25:14;;;;;;;20.72;10.98;;;;;;;23.13;81.77;100998.37;1709139;82;21104;-80